Time;durP1;ratioP1;P1;durP2;ratioP2;P2;SDS_P1;SDS_P2;PMS_P1;PMS_P2;Temp;Humidity;BMP_temperature;BMP_pressure;BME280_temperature;BME280_humidity;BME280_pressure;Samples;Min_cycle;Max_cycle;Signal;HPM_P1;HPM_P2
2022/02/13 00:01:05;;;;;;;;;;;3.00;99.90;;;;;;4980269;28;19980;-72
2022/02/13 00:03:31;;;;;;;;;;;2.90;99.90;;;;;;4982405;28;19918;-72
2022/02/13 00:05:57;;;;;;;;;;;3.00;99.90;;;;;;4982905;28;19910;-72
2022/02/13 00:08:22;;;;;;;;;;;3.00;99.90;;;;;;4979682;28;19988;-72
2022/02/13 00:10:48;;;;;;;;;;;3.10;99.90;;;;;;4980880;28;19920;-72
2022/02/13 00:13:13;;;;;;;;;;;3.00;99.90;;;;;;4979712;28;19980;-72
2022/02/13 00:15:39;;;;;;;;;;;3.00;99.90;;;;;;4982023;28;19976;-72
2022/02/13 00:18:05;;;;;;;;;;;2.90;99.90;;;;;;4980179;28;19949;-72
2022/02/13 00:20:30;;;;;;;;;;;3.00;99.90;;;;;;4981289;28;19914;-72
2022/02/13 00:22:56;;;;;;;;;;;3.00;99.90;;;;;;4979750;28;19920;-71
2022/02/13 00:25:22;;;;;;;;;;;3.00;99.90;;;;;;4982491;28;20425;-71
2022/02/13 00:27:48;;;;;;;;;;;3.00;99.90;;;;;;4982396;28;19910;-71
2022/02/13 00:30:15;;;;;;;;;;;3.10;99.90;;;;;;4981190;28;20359;-71
2022/02/13 00:32:43;;;;;;;;;;;3.10;99.90;;;;;;4980641;28;20272;-71
2022/02/13 00:35:09;;;;;;;;;;;3.10;99.90;;;;;;4982146;28;19917;-71
2022/02/13 00:37:35;;;;;;;;;;;3.00;99.90;;;;;;4980198;28;19910;-71
2022/02/13 00:40:01;;;;;;;;;;;3.00;99.90;;;;;;4983612;28;19928;-72
2022/02/13 00:42:26;;;;;;;;;;;3.00;99.90;;;;;;4986285;28;19974;-71
2022/02/13 00:44:52;;;;;;;;;;;3.00;99.90;;;;;;4997880;28;19914;-71
2022/02/13 00:47:17;;;;;;;;;;;3.00;99.90;;;;;;4983799;28;20293;-70
2022/02/13 00:49:43;;;;;;;;;;;3.00;99.90;;;;;;4982911;28;19917;-72
2022/02/13 00:52:09;;;;;;;;;;;3.00;99.90;;;;;;4978505;28;19910;-70
2022/02/13 00:54:34;;;;;;;;;;;3.00;99.90;;;;;;4981691;28;19914;-72
2022/02/13 00:57:00;;;;;;;;;;;3.00;99.90;;;;;;4979299;28;20134;-71
2022/02/13 00:59:26;;;;;;;;;;;3.10;99.90;;;;;;4979120;28;19918;-70
2022/02/13 01:01:51;;;;;;;;;;;3.10;99.90;;;;;;4979914;28;19916;-71
2022/02/13 01:04:17;;;;;;;;;;;3.10;99.90;;;;;;4981137;28;19913;-71
2022/02/13 01:06:42;;;;;;;;;;;3.10;99.90;;;;;;4979895;28;19914;-70
2022/02/13 01:09:08;;;;;;;;;;;3.00;99.90;;;;;;4979399;28;19910;-71
2022/02/13 01:11:34;;;;;;;;;;;3.00;99.90;;;;;;4980441;28;19914;-70
2022/02/13 01:13:59;;;;;;;;;;;3.00;99.90;;;;;;4978811;28;19914;-71
2022/02/13 01:16:26;;;;;;;;;;;3.10;99.90;;;;;;4980893;28;19909;-71
2022/02/13 01:18:53;;;;;;;;;;;3.00;99.90;;;;;;4981440;28;19910;-70
2022/02/13 01:21:18;;;;;;;;;;;3.00;99.90;;;;;;4977749;28;20370;-70
2022/02/13 01:23:44;;;;;;;;;;;2.90;99.90;;;;;;4982755;28;20005;-70
2022/02/13 01:26:10;;;;;;;;;;;2.90;99.90;;;;;;4961801;28;19969;-72
2022/02/13 01:28:36;;;;;;;;;;;2.90;99.90;;;;;;4978478;28;19951;-70
2022/02/13 01:31:02;;;;;;;;;;;2.90;99.90;;;;;;4977416;28;20402;-71
2022/02/13 01:33:31;;;;;;;;;;;2.90;99.90;;;;;;4982486;28;19914;-71
2022/02/13 01:35:57;;;;;;;;;;;2.90;99.90;;;;;;4981430;28;19914;-73
2022/02/13 01:38:23;;;;;;;;;;;2.90;99.90;;;;;;4982538;28;19909;-72
2022/02/13 01:40:48;;;;;;;;;;;2.90;99.90;;;;;;4981397;28;19918;-71
2022/02/13 01:43:14;;;;;;;;;;;2.80;99.90;;;;;;4980211;28;19913;-73
2022/02/13 01:45:39;;;;;;;;;;;2.80;99.90;;;;;;4981687;28;20389;-72
2022/02/13 01:48:08;;;;;;;;;;;2.80;99.90;;;;;;4981565;28;20652;-73
2022/02/13 01:50:34;;;;;;;;;;;2.80;99.90;;;;;;4979479;28;19910;-72
2022/02/13 01:53:00;;;;;;;;;;;2.80;99.90;;;;;;4980293;28;19910;-69
2022/02/13 01:55:25;;;;;;;;;;;2.90;99.90;;;;;;4980554;28;19920;-73
2022/02/13 01:57:51;;;;;;;;;;;2.90;99.90;;;;;;4979802;28;20360;-73
2022/02/13 02:00:17;;;;;;;;;;;2.80;99.90;;;;;;4986932;28;19914;-73
2022/02/13 02:02:42;;;;;;;;;;;2.80;99.90;;;;;;4981953;28;20375;-73
2022/02/13 02:05:08;;;;;;;;;;;2.80;99.90;;;;;;4983858;28;19909;-72
2022/02/13 02:07:33;;;;;;;;;;;2.80;99.90;;;;;;4983050;28;19912;-72
2022/02/13 02:09:59;;;;;;;;;;;2.80;99.90;;;;;;4969127;28;20077;-71
2022/02/13 02:12:26;;;;;;;;;;;2.80;99.90;;;;;;4980316;28;19964;-71
2022/02/13 02:14:52;;;;;;;;;;;2.80;99.90;;;;;;4980914;28;20071;-71
2022/02/13 02:17:17;;;;;;;;;;;2.80;99.90;;;;;;4979962;28;19993;-71
2022/02/13 02:19:43;;;;;;;;;;;2.80;99.90;;;;;;4981201;28;19917;-71
2022/02/13 02:22:09;;;;;;;;;;;2.80;99.90;;;;;;4964391;28;20009;-72
2022/02/13 02:24:35;;;;;;;;;;;2.70;99.90;;;;;;4977115;28;19918;-72
2022/02/13 02:27:00;;;;;;;;;;;2.80;99.90;;;;;;4964839;28;19960;-72
2022/02/13 02:29:26;;;;;;;;;;;2.80;99.90;;;;;;4978584;28;20004;-72
2022/02/13 02:31:52;;;;;;;;;;;2.80;99.90;;;;;;4982762;28;20331;-72
2022/02/13 02:34:18;;;;;;;;;;;2.90;99.90;;;;;;4978627;28;19936;-72
2022/02/13 02:36:43;;;;;;;;;;;2.90;99.90;;;;;;4979906;28;19910;-71
2022/02/13 02:39:09;;;;;;;;;;;2.80;99.90;;;;;;4983268;28;19909;-72
2022/02/13 02:41:35;;;;;;;;;;;2.80;99.90;;;;;;4983062;28;19972;-71
2022/02/13 02:44:00;;;;;;;;;;;2.80;99.90;;;;;;4973900;28;19913;-72
2022/02/13 02:46:26;;;;;;;;;;;2.80;99.90;;;;;;4982448;28;19909;-72
2022/02/13 02:48:52;;;;;;;;;;;2.80;99.90;;;;;;4981047;28;20415;-72
2022/02/13 02:51:17;;;;;;;;;;;2.80;99.90;;;;;;4984937;28;19953;-72
2022/02/13 02:53:43;;;;;;;;;;;2.80;99.90;;;;;;4979268;28;20163;-72
2022/02/13 02:56:09;;;;;;;;;;;2.80;99.90;;;;;;4979419;28;20272;-72
2022/02/13 02:58:34;;;;;;;;;;;2.80;99.90;;;;;;4979047;28;19981;-72
2022/02/13 03:01:00;;;;;;;;;;;2.70;99.90;;;;;;4979920;28;19972;-72
2022/02/13 03:03:25;;;;;;;;;;;2.70;99.90;;;;;;4986009;28;20410;-73
2022/02/13 03:05:52;;;;;;;;;;;2.80;99.90;;;;;;4985256;28;19910;-72
2022/02/13 03:08:19;;;;;;;;;;;2.80;99.90;;;;;;4983293;28;19989;-72
2022/02/13 03:10:45;;;;;;;;;;;2.90;99.90;;;;;;4982478;28;20446;-72
2022/02/13 03:13:12;;;;;;;;;;;2.90;99.90;;;;;;4983364;28;20004;-72
2022/02/13 03:15:38;;;;;;;;;;;2.80;99.90;;;;;;4985264;28;20221;-72
2022/02/13 03:18:03;;;;;;;;;;;2.70;99.90;;;;;;4982681;28;20012;-72
2022/02/13 03:20:29;;;;;;;;;;;2.70;99.90;;;;;;4980322;28;19910;-72
2022/02/13 03:22:55;;;;;;;;;;;2.80;99.90;;;;;;4982056;28;19916;-72
2022/02/13 03:25:20;;;;;;;;;;;2.70;99.90;;;;;;4982188;28;20387;-72
2022/02/13 03:27:46;;;;;;;;;;;2.80;99.90;;;;;;4985839;28;19917;-72
2022/02/13 03:30:12;;;;;;;;;;;2.80;99.90;;;;;;4980901;28;19949;-72
2022/02/13 03:32:37;;;;;;;;;;;2.80;99.90;;;;;;4982079;28;19910;-72
2022/02/13 03:35:03;;;;;;;;;;;2.70;99.90;;;;;;4979535;28;19917;-71
2022/02/13 03:37:28;;;;;;;;;;;2.80;99.90;;;;;;4984137;28;19940;-71
2022/02/13 03:39:54;;;;;;;;;;;2.80;99.90;;;;;;4984611;28;20245;-70
2022/02/13 03:42:20;;;;;;;;;;;2.70;99.90;;;;;;4982274;28;19975;-70
2022/02/13 03:44:45;;;;;;;;;;;2.70;99.90;;;;;;4985323;28;19916;-71
2022/02/13 03:47:11;;;;;;;;;;;2.80;99.90;;;;;;4981974;28;19913;-70
2022/02/13 03:49:36;;;;;;;;;;;2.70;99.90;;;;;;4981538;28;20075;-70
2022/02/13 03:52:02;;;;;;;;;;;2.70;99.90;;;;;;4990256;28;19918;-71
2022/02/13 03:54:28;;;;;;;;;;;2.70;99.90;;;;;;4992015;28;19961;-71
2022/02/13 03:56:53;;;;;;;;;;;2.60;99.90;;;;;;4975552;28;19910;-71
2022/02/13 03:59:19;;;;;;;;;;;2.60;99.90;;;;;;4988210;28;20000;-70
2022/02/13 04:01:44;;;;;;;;;;;2.60;99.90;;;;;;4982163;28;19909;-71
2022/02/13 04:04:10;;;;;;;;;;;2.60;99.90;;;;;;4980110;28;19917;-71
2022/02/13 04:06:35;;;;;;;;;;;2.70;99.90;;;;;;4983151;28;19909;-71
2022/02/13 04:09:01;;;;;;;;;;;2.60;99.90;;;;;;4961543;28;20014;-71
2022/02/13 04:11:26;;;;;;;;;;;2.60;99.90;;;;;;4982881;28;19910;-70
2022/02/13 04:13:52;;;;;;;;;;;2.60;99.90;;;;;;4983944;28;19960;-71
2022/02/13 04:16:17;;;;;;;;;;;2.70;99.90;;;;;;4985101;28;19957;-70
2022/02/13 04:18:43;;;;;;;;;;;2.60;99.90;;;;;;4983682;28;20360;-71
2022/02/13 04:21:09;;;;;;;;;;;2.60;99.90;;;;;;4981379;28;19918;-72
2022/02/13 04:23:34;;;;;;;;;;;2.60;99.90;;;;;;4981755;28;19941;-72
2022/02/13 04:26:00;;;;;;;;;;;2.70;99.90;;;;;;4981901;28;19917;-72
2022/02/13 04:28:26;;;;;;;;;;;2.70;99.90;;;;;;4983772;28;19910;-71
2022/02/13 04:30:52;;;;;;;;;;;2.70;99.90;;;;;;4980465;28;19917;-72
2022/02/13 04:33:18;;;;;;;;;;;2.70;99.90;;;;;;4984673;28;19910;-72
2022/02/13 04:35:44;;;;;;;;;;;2.70;99.90;;;;;;4981566;28;19918;-73
2022/02/13 04:38:09;;;;;;;;;;;2.60;99.90;;;;;;4980099;28;20326;-72
2022/02/13 04:40:35;;;;;;;;;;;2.60;99.90;;;;;;4980418;28;20383;-72
2022/02/13 04:43:00;;;;;;;;;;;2.60;99.90;;;;;;4984063;28;19914;-72
2022/02/13 04:45:26;;;;;;;;;;;2.60;99.90;;;;;;4961508;28;19918;-72
2022/02/13 04:47:52;;;;;;;;;;;2.60;99.90;;;;;;4981397;28;19949;-72
2022/02/13 04:50:23;;;;;;;;;;;2.50;99.90;;;;;;4981234;28;20307;-72
2022/02/13 04:52:49;;;;;;;;;;;2.50;99.90;;;;;;4977672;28;19921;-72
2022/02/13 04:55:15;;;;;;;;;;;2.50;99.90;;;;;;4983532;28;19914;-72
2022/02/13 04:57:41;;;;;;;;;;;2.50;99.90;;;;;;4981747;28;19917;-72
2022/02/13 05:00:07;;;;;;;;;;;2.50;99.90;;;;;;4982484;28;19918;-72
2022/02/13 05:02:32;;;;;;;;;;;2.50;99.90;;;;;;4979881;28;19917;-72
2022/02/13 05:04:58;;;;;;;;;;;2.60;99.90;;;;;;4982522;28;20398;-72
2022/02/13 05:07:23;;;;;;;;;;;2.50;99.90;;;;;;4982716;28;19917;-72
2022/02/13 05:09:49;;;;;;;;;;;2.50;99.90;;;;;;4977861;28;19914;-72
2022/02/13 05:12:15;;;;;;;;;;;2.40;99.90;;;;;;4983197;28;19921;-72
2022/02/13 05:14:40;;;;;;;;;;;2.40;99.90;;;;;;4980160;28;20393;-73
2022/02/13 05:17:06;;;;;;;;;;;2.40;99.90;;;;;;4980715;28;20443;-72
2022/02/13 05:19:32;;;;;;;;;;;2.30;99.90;;;;;;4979766;28;19914;-72
2022/02/13 05:21:57;;;;;;;;;;;2.40;99.90;;;;;;4980970;28;20426;-72
2022/02/13 05:24:23;;;;;;;;;;;2.30;99.90;;;;;;4984314;28;20304;-72
2022/02/13 05:26:49;;;;;;;;;;;2.30;99.90;;;;;;4982788;28;19916;-72
2022/02/13 05:29:15;;;;;;;;;;;2.40;99.90;;;;;;4981080;28;19910;-72
2022/02/13 05:31:41;;;;;;;;;;;2.40;99.90;;;;;;4982085;28;19914;-72
2022/02/13 05:34:06;;;;;;;;;;;2.40;99.90;;;;;;4981958;28;20267;-72
2022/02/13 05:36:32;;;;;;;;;;;2.30;99.90;;;;;;4980859;28;20252;-72
2022/02/13 05:38:58;;;;;;;;;;;2.30;99.90;;;;;;4979435;28;19980;-72
2022/02/13 05:41:23;;;;;;;;;;;2.40;99.90;;;;;;4981990;28;21231;-71
2022/02/13 05:43:49;;;;;;;;;;;2.30;99.90;;;;;;4980597;28;19910;-72
2022/02/13 05:46:15;;;;;;;;;;;2.30;99.90;;;;;;4979265;28;19910;-71
2022/02/13 05:48:40;;;;;;;;;;;2.30;99.90;;;;;;4980687;28;19920;-71
2022/02/13 05:51:07;;;;;;;;;;;2.30;99.90;;;;;;4980217;28;20360;-71
2022/02/13 05:53:32;;;;;;;;;;;2.30;99.90;;;;;;4977915;28;19937;-71
2022/02/13 05:55:58;;;;;;;;;;;2.30;99.90;;;;;;4981566;28;19910;-71
2022/02/13 05:58:23;;;;;;;;;;;2.30;99.90;;;;;;4995026;23;19921;-73
2022/02/13 06:00:49;;;;;;;;;;;2.40;99.90;;;;;;4978745;28;20045;-72
2022/02/13 06:03:14;;;;;;;;;;;2.30;99.90;;;;;;4979871;28;19906;-73
2022/02/13 06:05:40;;;;;;;;;;;2.30;99.90;;;;;;4980896;28;19914;-73
2022/02/13 06:08:05;;;;;;;;;;;2.40;99.90;;;;;;4980947;28;19964;-72
2022/02/13 06:10:31;;;;;;;;;;;2.30;99.90;;;;;;4965383;28;19909;-73
2022/02/13 06:12:57;;;;;;;;;;;2.30;99.90;;;;;;4978258;28;19914;-73
2022/02/13 06:15:22;;;;;;;;;;;2.40;99.90;;;;;;4973891;28;19992;-73
2022/02/13 06:17:48;;;;;;;;;;;2.40;99.90;;;;;;4981680;28;19988;-73
2022/02/13 06:20:13;;;;;;;;;;;2.40;99.90;;;;;;4979649;28;19969;-73
2022/02/13 06:22:39;;;;;;;;;;;2.40;99.90;;;;;;4981405;28;20264;-73
2022/02/13 06:25:05;;;;;;;;;;;2.40;99.90;;;;;;4977389;28;19906;-73
2022/02/13 06:27:31;;;;;;;;;;;2.40;99.90;;;;;;4981616;28;19940;-73
2022/02/13 06:29:56;;;;;;;;;;;2.30;99.90;;;;;;4981738;28;19909;-73
2022/02/13 06:32:22;;;;;;;;;;;2.40;99.90;;;;;;4977446;28;20000;-73
2022/02/13 06:34:47;;;;;;;;;;;2.40;99.90;;;;;;4979642;28;20360;-73
2022/02/13 06:37:13;;;;;;;;;;;2.30;99.90;;;;;;4981667;28;19969;-74
2022/02/13 06:39:38;;;;;;;;;;;2.30;99.90;;;;;;4987294;28;20029;-73
2022/02/13 06:42:04;;;;;;;;;;;2.30;99.90;;;;;;4985570;28;19909;-73
2022/02/13 06:44:30;;;;;;;;;;;2.30;99.90;;;;;;4965192;28;19964;-73
2022/02/13 06:46:55;;;;;;;;;;;2.30;99.90;;;;;;4987829;28;19920;-73
2022/02/13 06:49:21;;;;;;;;;;;2.30;99.90;;;;;;4981395;28;19914;-73
2022/02/13 06:51:46;;;;;;;;;;;2.30;99.90;;;;;;4983887;28;19910;-73
2022/02/13 06:54:12;;;;;;;;;;;2.30;99.90;;;;;;4981888;28;19968;-73
2022/02/13 06:56:37;;;;;;;;;;;2.40;99.90;;;;;;4980963;28;19977;-73
2022/02/13 06:59:04;;;;;;;;;;;2.30;99.90;;;;;;4985941;28;19921;-73
2022/02/13 07:01:30;;;;;;;;;;;2.30;99.90;;;;;;4981987;28;19925;-72
2022/02/13 07:03:55;;;;;;;;;;;2.30;99.90;;;;;;4982882;28;20271;-72
2022/02/13 07:06:21;;;;;;;;;;;2.30;99.90;;;;;;4985923;28;20032;-72
2022/02/13 07:08:46;;;;;;;;;;;2.30;99.90;;;;;;4983354;28;19910;-73
2022/02/13 07:11:12;;;;;;;;;;;2.30;99.90;;;;;;4982382;28;20000;-72
2022/02/13 07:13:38;;;;;;;;;;;2.30;99.90;;;;;;4982367;28;20291;-72
2022/02/13 07:16:03;;;;;;;;;;;2.30;99.90;;;;;;4986300;28;20356;-72
2022/02/13 07:18:29;;;;;;;;;;;2.30;99.90;;;;;;4987002;28;19913;-72
2022/02/13 07:20:55;;;;;;;;;;;2.30;99.90;;;;;;4980867;28;19910;-72
2022/02/13 07:23:20;;;;;;;;;;;2.30;99.90;;;;;;4983863;28;19969;-72
2022/02/13 07:25:47;;;;;;;;;;;2.40;99.90;;;;;;4982227;28;19920;-72
2022/02/13 07:30:57;;;;;;;;;;;2.40;99.90;;;;;;4980627;28;20279;-72
2022/02/13 07:33:22;;;;;;;;;;;2.40;99.90;;;;;;4985943;28;19910;-72
2022/02/13 07:35:48;;;;;;;;;;;2.40;99.90;;;;;;4981736;28;19952;-73
2022/02/13 07:38:13;;;;;;;;;;;2.30;99.90;;;;;;4981279;28;19920;-72
2022/02/13 07:40:39;;;;;;;;;;;2.40;99.90;;;;;;4982757;28;19924;-73
2022/02/13 07:43:05;;;;;;;;;;;2.40;99.90;;;;;;4965909;28;20425;-73
2022/02/13 07:45:30;;;;;;;;;;;2.50;99.90;;;;;;4982278;28;19909;-73
2022/02/13 07:47:56;;;;;;;;;;;2.50;99.90;;;;;;4980919;28;19968;-73
2022/02/13 07:50:21;;;;;;;;;;;2.50;99.90;;;;;;4979304;28;20004;-73
2022/02/13 07:52:47;;;;;;;;;;;2.50;99.90;;;;;;4983776;28;19917;-73
2022/02/13 07:55:13;;;;;;;;;;;2.50;99.90;;;;;;4982238;28;20271;-73
2022/02/13 07:57:39;;;;;;;;;;;2.50;99.90;;;;;;4981040;28;20303;-73
2022/02/13 08:00:05;;;;;;;;;;;2.60;99.90;;;;;;4981211;28;19914;-73
2022/02/13 08:02:31;;;;;;;;;;;2.60;99.90;;;;;;4981039;28;19916;-73
2022/02/13 08:04:56;;;;;;;;;;;2.60;99.90;;;;;;4981798;28;19913;-73
2022/02/13 08:07:22;;;;;;;;;;;2.60;99.90;;;;;;4983720;28;19916;-72
2022/02/13 08:09:47;;;;;;;;;;;2.70;99.90;;;;;;4982199;28;19918;-72
2022/02/13 08:12:13;;;;;;;;;;;2.70;99.90;;;;;;4980539;28;19918;-73
2022/02/13 08:14:38;;;;;;;;;;;2.70;99.90;;;;;;4979932;28;20065;-73
2022/02/13 08:17:04;;;;;;;;;;;2.70;99.90;;;;;;4982327;28;19921;-74
2022/02/13 08:19:35;;;;;;;;;;;2.70;99.90;;;;;;4980540;28;19921;-72
2022/02/13 08:22:01;;;;;;;;;;;2.80;99.90;;;;;;4979394;28;19975;-73
2022/02/13 08:24:27;;;;;;;;;;;2.90;99.90;;;;;;4979243;28;19910;-72
2022/02/13 08:26:52;;;;;;;;;;;2.90;99.90;;;;;;4982743;28;19917;-73
2022/02/13 08:29:20;;;;;;;;;;;3.00;99.90;;;;;;4980427;28;20371;-73
2022/02/13 08:31:47;;;;;;;;;;;3.00;99.90;;;;;;4979126;28;19916;-73
2022/02/13 08:34:12;;;;;;;;;;;3.10;99.90;;;;;;4980868;28;19920;-73
2022/02/13 08:36:38;;;;;;;;;;;3.10;99.90;;;;;;4983772;28;19909;-72
2022/02/13 08:39:04;;;;;;;;;;;3.20;99.90;;;;;;4965698;28;20021;-72
2022/02/13 08:41:30;;;;;;;;;;;3.30;99.90;;;;;;4983183;28;19957;-72
2022/02/13 08:43:55;;;;;;;;;;;3.40;99.90;;;;;;4979676;28;20399;-72
2022/02/13 08:46:23;;;;;;;;;;;3.40;99.90;;;;;;4981237;28;19909;-70
2022/02/13 08:48:48;;;;;;;;;;;3.50;99.90;;;;;;4982594;28;19921;-72
2022/02/13 08:51:14;;;;;;;;;;;3.60;99.70;;;;;;4971326;28;19910;-71
2022/02/13 08:53:40;;;;;;;;;;;3.70;99.90;;;;;;4982361;28;20315;-72
2022/02/13 08:56:06;;;;;;;;;;;3.90;99.00;;;;;;4978663;28;19910;-74
2022/02/13 08:58:32;;;;;;;;;;;3.90;98.40;;;;;;4979179;28;19917;-74
2022/02/13 09:00:59;;;;;;;;;;;4.00;98.20;;;;;;4978601;28;19913;-73
2022/02/13 09:03:24;;;;;;;;;;;4.10;97.90;;;;;;4980636;28;19981;-72
2022/02/13 09:05:50;;;;;;;;;;;4.10;97.70;;;;;;4981019;28;20057;-72
2022/02/13 09:08:16;;;;;;;;;;;4.20;97.10;;;;;;4982667;28;19914;-71
2022/02/13 09:10:41;;;;;;;;;;;4.30;98.10;;;;;;4982897;28;19999;-70
2022/02/13 09:13:08;;;;;;;;;;;4.30;97.50;;;;;;4979128;28;20444;-71
2022/02/13 09:15:33;;;;;;;;;;;4.30;97.90;;;;;;4981218;28;20276;-72
2022/02/13 09:17:59;;;;;;;;;;;4.30;97.80;;;;;;4980868;28;19917;-72
2022/02/13 09:20:25;;;;;;;;;;;4.40;98.50;;;;;;4981647;28;20380;-73
2022/02/13 09:22:52;;;;;;;;;;;4.50;97.20;;;;;;4979306;28;20562;-73
2022/02/13 09:25:19;;;;;;;;;;;4.50;98.10;;;;;;4995111;28;19917;-71
2022/02/13 09:27:45;;;;;;;;;;;4.50;97.70;;;;;;4995984;28;20269;-72
2022/02/13 09:30:10;;;;;;;;;;;4.60;97.80;;;;;;4980098;28;19998;-72
2022/02/13 09:32:38;;;;;;;;;;;4.70;96.60;;;;;;4980645;28;20894;-72
2022/02/13 09:35:04;;;;;;;;;;;4.80;95.90;;;;;;4980338;28;19922;-72
2022/02/13 09:37:30;;;;;;;;;;;4.80;95.00;;;;;;4980784;28;19921;-72
2022/02/13 09:39:55;;;;;;;;;;;4.90;95.00;;;;;;4986548;28;19913;-75
2022/02/13 09:42:21;;;;;;;;;;;4.90;95.50;;;;;;4983596;28;19914;-75
2022/02/13 09:44:47;;;;;;;;;;;5.00;95.30;;;;;;4983010;28;19909;-74
2022/02/13 09:47:13;;;;;;;;;;;5.10;94.90;;;;;;4983189;28;20413;-73
2022/02/13 09:49:39;;;;;;;;;;;5.10;94.80;;;;;;4981037;28;19980;-74
2022/02/13 09:52:05;;;;;;;;;;;5.20;94.30;;;;;;4983863;28;20380;-74
2022/02/13 09:54:31;;;;;;;;;;;5.20;94.70;;;;;;4967947;28;19913;-75
2022/02/13 09:57:59;;;;;;;;;;;5.30;94.30;;;;;;4977657;28;20275;-74
2022/02/13 10:00:11;;;;;;;;;;;5.30;92.50;;;;;;4976204;28;19917;-74
2022/02/13 10:02:39;;;;;;;;;;;5.40;93.50;;;;;;4967224;28;19949;-74
2022/02/13 10:05:06;;;;;;;;;;;5.40;94.00;;;;;;4981429;28;20008;-73
2022/02/13 10:07:32;;;;;;;;;;;5.40;94.30;;;;;;4962178;28;19920;-74
2022/02/13 10:09:59;;;;;;;;;;;5.40;94.40;;;;;;4977461;28;19968;-73
2022/02/13 10:12:39;;;;;;;;;;;5.50;94.00;;;;;;4963627;28;19914;-72
2022/02/13 10:15:17;;;;;;;;;;;5.50;94.50;;;;;;4985518;28;19918;-73
2022/02/13 10:18:02;;;;;;;;;;;5.50;94.40;;;;;;4999063;28;20372;-74
2022/02/13 10:20:32;;;;;;;;;;;5.40;94.40;;;;;;4981401;28;19916;-73
2022/02/13 10:23:03;;;;;;;;;;;5.40;94.40;;;;;;4980188;28;19910;-74
2022/02/13 10:25:29;;;;;;;;;;;5.40;94.70;;;;;;4987903;28;19910;-75
2022/02/13 10:27:55;;;;;;;;;;;5.40;94.60;;;;;;4980859;28;19988;-73
2022/02/13 10:30:33;;;;;;;;;;;5.60;94.50;;;;;;4982108;28;19953;-74
2022/02/13 10:33:12;;;;;;;;;;;5.70;95.30;;;;;;4983391;28;21843;-74
2022/02/13 10:35:38;;;;;;;;;;;5.60;94.30;;;;;;4978026;28;20039;-74
2022/02/13 10:38:04;;;;;;;;;;;5.60;94.30;;;;;;4982876;28;19945;-75
2022/02/13 10:40:31;;;;;;;;;;;5.60;94.70;;;;;;4984497;28;19914;-75
2022/02/13 10:43:04;;;;;;;;;;;5.60;95.40;;;;;;4977928;28;20335;-74
2022/02/13 10:45:30;;;;;;;;;;;5.70;94.70;;;;;;4979652;28;19910;-73
2022/02/13 10:48:01;;;;;;;;;;;5.80;94.40;;;;;;4979066;28;19918;-75
2022/02/13 10:50:28;;;;;;;;;;;5.80;94.40;;;;;;4982761;28;20276;-74
2022/02/13 10:52:56;;;;;;;;;;;5.80;94.60;;;;;;4987990;28;19916;-75
2022/02/13 10:55:22;;;;;;;;;;;6.00;94.30;;;;;;4981878;28;19910;-75
2022/02/13 10:57:47;;;;;;;;;;;6.20;93.10;;;;;;4979799;28;20004;-72
2022/02/13 11:00:14;;;;;;;;;;;6.40;91.60;;;;;;4979739;28;19918;-72
2022/02/13 11:02:40;;;;;;;;;;;6.40;91.70;;;;;;4984441;28;19913;-75
2022/02/13 11:05:09;;;;;;;;;;;6.60;92.20;;;;;;4979407;28;19918;-75
2022/02/13 11:07:39;;;;;;;;;;;6.80;91.50;;;;;;4978841;28;19981;-74
2022/02/13 11:10:05;;;;;;;;;;;7.10;90.00;;;;;;4978928;28;20284;-72
2022/02/13 11:12:31;;;;;;;;;;;7.60;85.70;;;;;;4980790;28;19914;-73
2022/02/13 11:15:13;;;;;;;;;;;8.00;83.10;;;;;;4982471;28;20311;-72
2022/02/13 11:17:40;;;;;;;;;;;8.30;78.40;;;;;;4978320;28;19910;-74
2022/02/13 11:20:07;;;;;;;;;;;8.80;75.30;;;;;;4977894;28;20379;-75
2022/02/13 11:22:35;;;;;;;;;;;9.30;69.10;;;;;;4978279;28;19910;-75
2022/02/13 11:25:01;;;;;;;;;;;9.60;68.50;;;;;;4980365;28;19941;-75
2022/02/13 11:27:46;;;;;;;;;;;9.70;68.80;;;;;;4964367;28;20368;-75
2022/02/13 11:30:12;;;;;;;;;;;9.70;65.60;;;;;;5000677;28;19964;-76
2022/02/13 11:32:38;;;;;;;;;;;9.80;69.50;;;;;;4983501;28;20009;-74
2022/02/13 11:35:07;;;;;;;;;;;9.90;66.30;;;;;;4981739;28;20046;-74
2022/02/13 11:37:47;;;;;;;;;;;10.00;65.00;;;;;;4985821;28;19914;-75
2022/02/13 11:40:31;;;;;;;;;;;10.10;64.20;;;;;;5000589;28;19993;-75
2022/02/13 11:42:57;;;;;;;;;;;9.80;64.00;;;;;;4985422;28;20008;-75
2022/02/13 11:45:24;;;;;;;;;;;9.50;67.60;;;;;;4980702;28;20001;-75
2022/02/13 11:47:50;;;;;;;;;;;9.30;68.60;;;;;;4983763;28;19910;-74
2022/02/13 11:50:21;;;;;;;;;;;9.10;72.70;;;;;;4999352;28;20360;-74
2022/02/13 11:52:57;;;;;;;;;;;8.90;72.50;;;;;;4987133;28;20399;-74
2022/02/13 11:55:26;;;;;;;;;;;8.60;77.90;;;;;;4980238;28;19910;-74
2022/02/13 11:57:59;;;;;;;;;;;8.30;74.60;;;;;;4967241;28;19910;-75
2022/02/13 12:00:36;;;;;;;;;;;8.00;79.10;;;;;;4989238;28;19914;-74
2022/02/13 12:03:15;;;;;;;;;;;7.80;82.70;;;;;;4989535;28;20363;-77
2022/02/13 12:05:40;;;;;;;;;;;7.70;85.60;;;;;;4992649;28;20066;-74
2022/02/13 12:08:06;;;;;;;;;;;7.60;87.70;;;;;;4984712;28;19915;-73
2022/02/13 12:10:36;;;;;;;;;;;7.60;87.20;;;;;;4981395;28;20280;-73
2022/02/13 12:13:17;;;;;;;;;;;7.60;88.40;;;;;;4982423;28;19911;-74
2022/02/13 12:15:50;;;;;;;;;;;7.60;86.10;;;;;;4991026;28;19914;-73
2022/02/13 12:18:16;;;;;;;;;;;7.50;88.80;;;;;;4980973;28;19917;-74
2022/02/13 12:20:42;;;;;;;;;;;7.50;86.30;;;;;;4982755;28;20307;-73
2022/02/13 12:23:09;;;;;;;;;;;7.40;87.20;;;;;;4984537;28;19906;-73
2022/02/13 12:25:35;;;;;;;;;;;7.40;88.60;;;;;;4987012;28;19920;-74
2022/02/13 12:28:02;;;;;;;;;;;7.30;90.30;;;;;;4989459;28;19905;-74
2022/02/13 12:30:28;;;;;;;;;;;7.30;88.00;;;;;;4982095;28;19922;-75
2022/02/13 12:32:58;;;;;;;;;;;7.30;90.20;;;;;;4978881;28;20451;-74
2022/02/13 12:35:30;;;;;;;;;;;7.20;90.30;;;;;;4980635;28;19941;-74
2022/02/13 12:37:57;;;;;;;;;;;7.20;90.30;;;;;;4988946;28;20557;-73
2022/02/13 12:40:29;;;;;;;;;;;7.30;87.40;;;;;;4974248;28;20368;-74
2022/02/13 12:43:08;;;;;;;;;;;7.20;89.70;;;;;;4982371;28;19914;-74
2022/02/13 12:45:35;;;;;;;;;;;7.20;91.10;;;;;;4981820;28;19910;-75
2022/02/13 12:48:02;;;;;;;;;;;7.20;90.90;;;;;;4990799;28;19913;-73
2022/02/13 12:50:29;;;;;;;;;;;7.30;91.80;;;;;;4978146;28;19940;-75
2022/02/13 12:52:59;;;;;;;;;;;7.40;92.50;;;;;;4985652;28;20479;-75
2022/02/13 12:55:25;;;;;;;;;;;7.40;91.00;;;;;;4986645;28;20375;-76
2022/02/13 12:57:52;;;;;;;;;;;7.40;87.50;;;;;;4977474;28;19910;-76
2022/02/13 13:00:18;;;;;;;;;;;7.40;88.70;;;;;;4977966;28;20410;-76
2022/02/13 13:02:53;;;;;;;;;;;7.40;88.00;;;;;;4982022;28;19910;-77
2022/02/13 13:05:21;;;;;;;;;;;7.40;86.40;;;;;;4982852;28;20004;-76
2022/02/13 13:07:47;;;;;;;;;;;7.30;88.20;;;;;;4979232;28;20018;-75
2022/02/13 13:10:27;;;;;;;;;;;7.30;89.10;;;;;;4983809;28;20375;-74
2022/02/13 13:13:03;;;;;;;;;;;7.40;88.00;;;;;;4986513;28;19998;-76
2022/02/13 13:15:28;;;;;;;;;;;7.40;85.70;;;;;;4983235;28;19920;-75
2022/02/13 13:17:54;;;;;;;;;;;7.40;85.90;;;;;;4980515;28;19922;-74
2022/02/13 13:20:23;;;;;;;;;;;7.30;88.20;;;;;;4980473;28;19914;-73
2022/02/13 13:23:08;;;;;;;;;;;7.30;86.50;;;;;;4991241;28;20062;-73
2022/02/13 13:25:33;;;;;;;;;;;7.30;86.90;;;;;;4980427;28;19918;-73
2022/02/13 13:28:08;;;;;;;;;;;7.30;86.10;;;;;;4983058;28;20287;-74
2022/02/13 13:30:34;;;;;;;;;;;7.40;88.10;;;;;;4981300;28;19910;-73
2022/02/13 13:33:04;;;;;;;;;;;7.40;88.70;;;;;;4990701;28;19921;-73
2022/02/13 13:35:30;;;;;;;;;;;7.40;86.90;;;;;;4979527;28;19921;-75
2022/02/13 13:37:56;;;;;;;;;;;7.40;87.20;;;;;;4987122;28;19906;-73
2022/02/13 13:40:25;;;;;;;;;;;7.50;88.50;;;;;;4980752;28;19906;-73
2022/02/13 13:42:57;;;;;;;;;;;7.50;86.40;;;;;;4981475;28;19921;-74
2022/02/13 13:45:27;;;;;;;;;;;7.40;85.10;;;;;;4984887;28;19937;-73
2022/02/13 13:47:53;;;;;;;;;;;7.50;84.30;;;;;;4984819;28;20295;-74
2022/02/13 13:50:22;;;;;;;;;;;7.50;85.60;;;;;;4988033;28;19991;-73
2022/02/13 13:52:47;;;;;;;;;;;7.50;87.20;;;;;;4968781;28;20292;-75
2022/02/13 13:55:13;;;;;;;;;;;7.50;87.30;;;;;;4987272;28;19917;-73
2022/02/13 13:57:39;;;;;;;;;;;7.50;85.40;;;;;;4990426;28;19926;-73
2022/02/13 14:00:05;;;;;;;;;;;7.50;86.50;;;;;;4972426;28;19914;-72
2022/02/13 14:02:31;;;;;;;;;;;7.50;84.20;;;;;;4981626;28;19914;-73
2022/02/13 14:04:57;;;;;;;;;;;7.50;86.60;;;;;;4974785;28;19961;-73
2022/02/13 14:07:22;;;;;;;;;;;7.50;88.70;;;;;;4985817;28;19906;-74
2022/02/13 14:09:48;;;;;;;;;;;7.50;88.30;;;;;;4982622;28;20364;-74
2022/02/13 14:12:15;;;;;;;;;;;7.70;87.30;;;;;;4983171;28;19947;-81
2022/02/13 14:14:41;;;;;;;;;;;7.80;84.90;;;;;;4977700;28;20387;-72
2022/02/13 14:17:07;;;;;;;;;;;7.80;81.10;;;;;;4979745;28;20008;-73
2022/02/13 14:19:32;;;;;;;;;;;7.80;84.80;;;;;;4971317;28;20491;-73
2022/02/13 14:21:58;;;;;;;;;;;7.80;82.60;;;;;;4971456;28;19914;-73
2022/02/13 14:24:24;;;;;;;;;;;8.00;81.30;;;;;;4977936;28;19918;-73
2022/02/13 14:26:49;;;;;;;;;;;7.90;81.50;;;;;;4982243;28;20594;-73
2022/02/13 14:29:15;;;;;;;;;;;7.90;78.70;;;;;;4982540;28;19910;-73
2022/02/13 14:31:43;;;;;;;;;;;7.80;83.00;;;;;;4986806;28;19906;-73